sensor_id;sensor_type;location;lat;lon;timestamp;P1;durP1;ratioP1;P2;durP2;ratioP2
9563;SDS011;4820;50.870;4.702;2022-10-13T00:01:05;12.18;;;8.30;;
9563;SDS011;4820;50.870;4.702;2022-10-13T00:03:37;15.35;;;8.00;;
9563;SDS011;4820;50.870;4.702;2022-10-13T00:06:07;10.95;;;7.50;;
9563;SDS011;4820;50.870;4.702;2022-10-13T00:08:35;13.80;;;8.35;;
9563;SDS011;4820;50.870;4.702;2022-10-13T00:11:07;12.80;;;8.25;;
9563;SDS011;4820;50.870;4.702;2022-10-13T00:13:38;12.35;;;7.60;;
9563;SDS011;4820;50.870;4.702;2022-10-13T00:16:04;11.25;;;7.65;;
9563;SDS011;4820;50.870;4.702;2022-10-13T00:18:30;13.65;;;7.82;;
9563;SDS011;4820;50.870;4.702;2022-10-13T00:20:56;12.65;;;8.05;;
9563;SDS011;4820;50.870;4.702;2022-10-13T00:23:22;12.15;;;8.45;;
9563;SDS011;4820;50.870;4.702;2022-10-13T00:25:48;12.18;;;7.88;;
9563;SDS011;4820;50.870;4.702;2022-10-13T00:28:15;13.63;;;8.23;;
9563;SDS011;4820;50.870;4.702;2022-10-13T00:30:42;11.43;;;7.88;;
9563;SDS011;4820;50.870;4.702;2022-10-13T00:33:09;13.02;;;7.82;;
9563;SDS011;4820;50.870;4.702;2022-10-13T00:35:40;11.35;;;7.53;;
9563;SDS011;4820;50.870;4.702;2022-10-13T00:38:11;11.68;;;7.20;;
9563;SDS011;4820;50.870;4.702;2022-10-13T00:40:50;12.35;;;7.90;;
9563;SDS011;4820;50.870;4.702;2022-10-13T00:43:21;11.50;;;7.80;;
9563;SDS011;4820;50.870;4.702;2022-10-13T00:45:48;12.73;;;7.65;;
9563;SDS011;4820;50.870;4.702;2022-10-13T00:48:16;11.40;;;7.30;;
9563;SDS011;4820;50.870;4.702;2022-10-13T00:50:47;10.77;;;7.93;;
9563;SDS011;4820;50.870;4.702;2022-10-13T00:53:13;10.23;;;7.20;;
9563;SDS011;4820;50.870;4.702;2022-10-13T00:55:40;9.68;;;6.95;;
9563;SDS011;4820;50.870;4.702;2022-10-13T00:58:07;12.45;;;7.90;;
9563;SDS011;4820;50.870;4.702;2022-10-13T01:00:36;11.27;;;7.88;;
9563;SDS011;4820;50.870;4.702;2022-10-13T01:03:02;12.80;;;7.63;;
9563;SDS011;4820;50.870;4.702;2022-10-13T01:05:28;8.60;;;6.85;;
9563;SDS011;4820;50.870;4.702;2022-10-13T01:07:55;10.48;;;7.30;;
9563;SDS011;4820;50.870;4.702;2022-10-13T01:13:19;10.38;;;7.20;;
9563;SDS011;4820;50.870;4.702;2022-10-13T01:19:12;9.70;;;7.07;;
9563;SDS011;4820;50.870;4.702;2022-10-13T01:27:24;12.27;;;7.20;;
9563;SDS011;4820;50.870;4.702;2022-10-13T01:40:37;10.05;;;6.80;;
9563;SDS011;4820;50.870;4.702;2022-10-13T01:43:22;9.13;;;6.70;;
9563;SDS011;4820;50.870;4.702;2022-10-13T01:45:54;14.70;;;7.32;;
9563;SDS011;4820;50.870;4.702;2022-10-13T01:48:27;12.18;;;7.05;;
9563;SDS011;4820;50.870;4.702;2022-10-13T01:50:54;14.75;;;7.70;;
9563;SDS011;4820;50.870;4.702;2022-10-13T01:53:23;11.55;;;7.05;;
9563;SDS011;4820;50.870;4.702;2022-10-13T01:55:53;11.13;;;7.63;;
9563;SDS011;4820;50.870;4.702;2022-10-13T01:58:21;11.90;;;7.50;;
9563;SDS011;4820;50.870;4.702;2022-10-13T02:01:01;11.30;;;7.28;;
9563;SDS011;4820;50.870;4.702;2022-10-13T02:12:11;11.82;;;6.88;;
9563;SDS011;4820;50.870;4.702;2022-10-13T02:14:57;9.35;;;7.35;;
9563;SDS011;4820;50.870;4.702;2022-10-13T02:17:25;13.10;;;7.57;;
9563;SDS011;4820;50.870;4.702;2022-10-13T02:19:51;13.73;;;7.70;;
9563;SDS011;4820;50.870;4.702;2022-10-13T02:22:18;12.30;;;6.93;;
9563;SDS011;4820;50.870;4.702;2022-10-13T02:24:46;10.38;;;7.40;;
9563;SDS011;4820;50.870;4.702;2022-10-13T02:27:12;10.95;;;7.60;;
9563;SDS011;4820;50.870;4.702;2022-10-13T02:29:48;9.75;;;6.95;;
9563;SDS011;4820;50.870;4.702;2022-10-13T02:32:15;13.27;;;7.32;;
9563;SDS011;4820;50.870;4.702;2022-10-13T02:34:40;11.23;;;7.43;;
9563;SDS011;4820;50.870;4.702;2022-10-13T02:37:06;12.30;;;7.43;;
9563;SDS011;4820;50.870;4.702;2022-10-13T02:39:31;12.15;;;6.80;;
9563;SDS011;4820;50.870;4.702;2022-10-13T02:41:57;12.70;;;7.10;;
9563;SDS011;4820;50.870;4.702;2022-10-13T02:44:23;9.40;;;7.22;;
9563;SDS011;4820;50.870;4.702;2022-10-13T02:46:49;10.80;;;7.28;;
9563;SDS011;4820;50.870;4.702;2022-10-13T02:49:14;14.05;;;7.38;;
9563;SDS011;4820;50.870;4.702;2022-10-13T02:51:40;9.75;;;7.00;;
9563;SDS011;4820;50.870;4.702;2022-10-13T02:54:06;8.50;;;6.93;;
9563;SDS011;4820;50.870;4.702;2022-10-13T02:56:31;13.25;;;7.45;;
9563;SDS011;4820;50.870;4.702;2022-10-13T02:58:57;12.15;;;7.35;;
9563;SDS011;4820;50.870;4.702;2022-10-13T03:01:23;10.82;;;7.40;;
9563;SDS011;4820;50.870;4.702;2022-10-13T03:03:48;13.23;;;7.70;;
9563;SDS011;4820;50.870;4.702;2022-10-13T03:06:14;13.73;;;8.15;;
9563;SDS011;4820;50.870;4.702;2022-10-13T03:08:40;13.55;;;7.50;;
9563;SDS011;4820;50.870;4.702;2022-10-13T03:11:05;12.23;;;7.53;;
9563;SDS011;4820;50.870;4.702;2022-10-13T03:13:31;14.05;;;8.48;;
9563;SDS011;4820;50.870;4.702;2022-10-13T03:15:57;12.32;;;7.80;;
9563;SDS011;4820;50.870;4.702;2022-10-13T03:18:22;10.23;;;7.97;;
9563;SDS011;4820;50.870;4.702;2022-10-13T03:20:54;12.82;;;7.93;;
9563;SDS011;4820;50.870;4.702;2022-10-13T03:23:24;13.52;;;8.45;;
9563;SDS011;4820;50.870;4.702;2022-10-13T03:25:50;11.00;;;8.10;;
9563;SDS011;4820;50.870;4.702;2022-10-13T03:28:16;12.65;;;8.15;;
9563;SDS011;4820;50.870;4.702;2022-10-13T03:30:41;14.38;;;8.73;;
9563;SDS011;4820;50.870;4.702;2022-10-13T03:33:07;11.75;;;8.27;;
9563;SDS011;4820;50.870;4.702;2022-10-13T03:35:32;12.55;;;8.32;;
9563;SDS011;4820;50.870;4.702;2022-10-13T03:37:58;14.23;;;8.73;;
9563;SDS011;4820;50.870;4.702;2022-10-13T03:40:24;13.93;;;9.15;;
9563;SDS011;4820;50.870;4.702;2022-10-13T03:42:49;13.60;;;8.85;;
9563;SDS011;4820;50.870;4.702;2022-10-13T03:45:15;11.60;;;8.05;;
9563;SDS011;4820;50.870;4.702;2022-10-13T03:47:41;12.60;;;8.77;;
9563;SDS011;4820;50.870;4.702;2022-10-13T03:50:06;11.43;;;8.63;;
9563;SDS011;4820;50.870;4.702;2022-10-13T03:52:34;11.32;;;8.07;;
9563;SDS011;4820;50.870;4.702;2022-10-13T03:54:59;14.95;;;8.57;;
9563;SDS011;4820;50.870;4.702;2022-10-13T03:57:25;14.25;;;9.30;;
9563;SDS011;4820;50.870;4.702;2022-10-13T03:59:51;13.88;;;8.90;;
9563;SDS011;4820;50.870;4.702;2022-10-13T04:02:16;15.07;;;9.32;;
9563;SDS011;4820;50.870;4.702;2022-10-13T04:04:42;13.50;;;8.50;;
9563;SDS011;4820;50.870;4.702;2022-10-13T04:07:08;14.48;;;8.75;;
9563;SDS011;4820;50.870;4.702;2022-10-13T04:09:33;13.90;;;8.45;;
9563;SDS011;4820;50.870;4.702;2022-10-13T04:11:59;9.90;;;7.68;;
9563;SDS011;4820;50.870;4.702;2022-10-13T04:14:24;12.32;;;8.48;;
9563;SDS011;4820;50.870;4.702;2022-10-13T04:16:50;12.35;;;8.52;;
9563;SDS011;4820;50.870;4.702;2022-10-13T04:19:16;17.40;;;8.85;;
9563;SDS011;4820;50.870;4.702;2022-10-13T04:21:42;14.20;;;8.73;;
9563;SDS011;4820;50.870;4.702;2022-10-13T04:24:09;17.05;;;8.95;;
9563;SDS011;4820;50.870;4.702;2022-10-13T04:26:37;17.15;;;8.63;;
9563;SDS011;4820;50.870;4.702;2022-10-13T04:29:03;15.10;;;9.18;;
9563;SDS011;4820;50.870;4.702;2022-10-13T04:31:30;11.75;;;8.27;;
9563;SDS011;4820;50.870;4.702;2022-10-13T04:33:56;13.02;;;8.57;;
9563;SDS011;4820;50.870;4.702;2022-10-13T04:36:22;13.68;;;8.98;;
9563;SDS011;4820;50.870;4.702;2022-10-13T04:38:48;12.25;;;8.77;;
9563;SDS011;4820;50.870;4.702;2022-10-13T04:41:15;12.20;;;8.23;;
9563;SDS011;4820;50.870;4.702;2022-10-13T04:43:41;14.27;;;8.38;;
9563;SDS011;4820;50.870;4.702;2022-10-13T04:46:15;12.50;;;8.32;;
9563;SDS011;4820;50.870;4.702;2022-10-13T04:48:43;12.65;;;8.80;;
9563;SDS011;4820;50.870;4.702;2022-10-13T04:51:10;12.48;;;7.95;;
9563;SDS011;4820;50.870;4.702;2022-10-13T04:53:37;10.10;;;7.60;;
9563;SDS011;4820;50.870;4.702;2022-10-13T04:56:05;11.35;;;8.27;;
9563;SDS011;4820;50.870;4.702;2022-10-13T04:58:32;13.20;;;8.20;;
9563;SDS011;4820;50.870;4.702;2022-10-13T05:00:59;12.02;;;7.32;;
9563;SDS011;4820;50.870;4.702;2022-10-13T05:03:25;14.93;;;8.00;;
9563;SDS011;4820;50.870;4.702;2022-10-13T05:05:51;10.55;;;7.63;;
9563;SDS011;4820;50.870;4.702;2022-10-13T05:08:17;12.57;;;8.50;;
9563;SDS011;4820;50.870;4.702;2022-10-13T05:10:51;12.00;;;8.55;;
9563;SDS011;4820;50.870;4.702;2022-10-13T05:13:21;13.32;;;8.25;;
9563;SDS011;4820;50.870;4.702;2022-10-13T05:15:47;10.77;;;8.30;;
9563;SDS011;4820;50.870;4.702;2022-10-13T05:18:13;11.93;;;8.30;;
9563;SDS011;4820;50.870;4.702;2022-10-13T05:20:39;14.27;;;8.43;;
9563;SDS011;4820;50.870;4.702;2022-10-13T05:23:05;14.63;;;8.45;;
9563;SDS011;4820;50.870;4.702;2022-10-13T05:25:30;9.63;;;7.13;;
9563;SDS011;4820;50.870;4.702;2022-10-13T05:27:58;11.27;;;7.45;;
9563;SDS011;4820;50.870;4.702;2022-10-13T05:30:23;11.27;;;8.10;;
9563;SDS011;4820;50.870;4.702;2022-10-13T05:32:49;14.65;;;7.95;;
9563;SDS011;4820;50.870;4.702;2022-10-13T05:35:15;12.65;;;8.30;;
9563;SDS011;4820;50.870;4.702;2022-10-13T05:37:40;10.95;;;8.40;;
9563;SDS011;4820;50.870;4.702;2022-10-13T05:40:06;11.50;;;8.25;;
9563;SDS011;4820;50.870;4.702;2022-10-13T05:42:32;11.32;;;7.43;;
9563;SDS011;4820;50.870;4.702;2022-10-13T05:44:59;8.30;;;7.00;;
9563;SDS011;4820;50.870;4.702;2022-10-13T05:47:25;10.35;;;8.20;;
9563;SDS011;4820;50.870;4.702;2022-10-13T05:49:53;11.63;;;7.88;;
9563;SDS011;4820;50.870;4.702;2022-10-13T05:52:19;10.68;;;7.15;;
9563;SDS011;4820;50.870;4.702;2022-10-13T05:54:47;9.60;;;7.43;;
9563;SDS011;4820;50.870;4.702;2022-10-13T05:57:18;10.73;;;7.28;;
9563;SDS011;4820;50.870;4.702;2022-10-13T05:59:54;11.40;;;7.32;;
9563;SDS011;4820;50.870;4.702;2022-10-13T06:02:23;12.45;;;7.72;;
9563;SDS011;4820;50.870;4.702;2022-10-13T06:04:52;10.95;;;8.48;;
9563;SDS011;4820;50.870;4.702;2022-10-13T06:07:21;10.50;;;7.72;;
9563;SDS011;4820;50.870;4.702;2022-10-13T06:09:47;12.23;;;8.60;;
9563;SDS011;4820;50.870;4.702;2022-10-13T06:12:13;12.48;;;8.68;;
9563;SDS011;4820;50.870;4.702;2022-10-13T06:14:39;17.02;;;8.60;;
9563;SDS011;4820;50.870;4.702;2022-10-13T06:17:05;15.82;;;8.48;;
9563;SDS011;4820;50.870;4.702;2022-10-13T06:19:31;13.25;;;8.88;;
9563;SDS011;4820;50.870;4.702;2022-10-13T06:21:57;13.52;;;9.20;;
9563;SDS011;4820;50.870;4.702;2022-10-13T06:24:22;16.33;;;8.70;;
9563;SDS011;4820;50.870;4.702;2022-10-13T06:26:48;11.15;;;8.02;;
9563;SDS011;4820;50.870;4.702;2022-10-13T06:29:14;14.68;;;8.85;;
9563;SDS011;4820;50.870;4.702;2022-10-13T06:31:39;14.38;;;9.32;;
9563;SDS011;4820;50.870;4.702;2022-10-13T06:34:05;16.30;;;9.10;;
9563;SDS011;4820;50.870;4.702;2022-10-13T06:36:32;13.45;;;8.57;;
9563;SDS011;4820;50.870;4.702;2022-10-13T06:38:58;15.80;;;9.23;;
9563;SDS011;4820;50.870;4.702;2022-10-13T06:41:23;16.02;;;9.13;;
9563;SDS011;4820;50.870;4.702;2022-10-13T06:43:49;14.88;;;9.00;;
9563;SDS011;4820;50.870;4.702;2022-10-13T06:46:15;14.88;;;9.52;;
9563;SDS011;4820;50.870;4.702;2022-10-13T06:48:40;13.25;;;9.00;;
9563;SDS011;4820;50.870;4.702;2022-10-13T06:51:07;17.70;;;9.32;;
9563;SDS011;4820;50.870;4.702;2022-10-13T06:53:34;13.95;;;8.93;;
9563;SDS011;4820;50.870;4.702;2022-10-13T06:56:00;13.40;;;8.65;;
9563;SDS011;4820;50.870;4.702;2022-10-13T06:58:27;15.25;;;9.10;;
9563;SDS011;4820;50.870;4.702;2022-10-13T07:00:53;16.10;;;9.82;;
9563;SDS011;4820;50.870;4.702;2022-10-13T07:03:19;16.38;;;9.00;;
9563;SDS011;4820;50.870;4.702;2022-10-13T07:05:45;12.43;;;8.35;;
9563;SDS011;4820;50.870;4.702;2022-10-13T07:08:11;12.52;;;8.30;;
9563;SDS011;4820;50.870;4.702;2022-10-13T07:10:37;15.50;;;8.60;;
9563;SDS011;4820;50.870;4.702;2022-10-13T07:13:03;15.48;;;8.77;;
9563;SDS011;4820;50.870;4.702;2022-10-13T07:15:29;12.20;;;8.02;;
9563;SDS011;4820;50.870;4.702;2022-10-13T07:17:55;14.30;;;8.90;;
9563;SDS011;4820;50.870;4.702;2022-10-13T07:20:21;13.40;;;8.43;;
9563;SDS011;4820;50.870;4.702;2022-10-13T07:22:47;13.15;;;8.25;;
9563;SDS011;4820;50.870;4.702;2022-10-13T07:25:13;8.02;;;6.38;;
9563;SDS011;4820;50.870;4.702;2022-10-13T07:27:40;9.43;;;7.07;;
9563;SDS011;4820;50.870;4.702;2022-10-13T07:30:06;8.48;;;6.68;;
9563;SDS011;4820;50.870;4.702;2022-10-13T07:32:33;9.52;;;7.25;;
9563;SDS011;4820;50.870;4.702;2022-10-13T07:34:59;9.35;;;7.53;;
9563;SDS011;4820;50.870;4.702;2022-10-13T07:37:25;10.90;;;7.68;;
9563;SDS011;4820;50.870;4.702;2022-10-13T07:39:51;9.85;;;7.40;;
9563;SDS011;4820;50.870;4.702;2022-10-13T07:42:17;9.82;;;7.25;;
9563;SDS011;4820;50.870;4.702;2022-10-13T07:44:43;13.52;;;7.80;;
9563;SDS011;4820;50.870;4.702;2022-10-13T07:47:09;17.52;;;8.07;;
9563;SDS011;4820;50.870;4.702;2022-10-13T07:49:34;13.32;;;7.82;;
9563;SDS011;4820;50.870;4.702;2022-10-13T07:52:00;12.20;;;7.57;;
9563;SDS011;4820;50.870;4.702;2022-10-13T07:54:26;12.13;;;7.72;;
9563;SDS011;4820;50.870;4.702;2022-10-13T07:56:52;10.43;;;7.82;;
9563;SDS011;4820;50.870;4.702;2022-10-13T07:59:19;9.15;;;6.78;;
9563;SDS011;4820;50.870;4.702;2022-10-13T08:01:45;9.73;;;7.57;;
9563;SDS011;4820;50.870;4.702;2022-10-13T08:04:10;10.20;;;7.50;;
9563;SDS011;4820;50.870;4.702;2022-10-13T08:06:36;12.35;;;7.70;;
9563;SDS011;4820;50.870;4.702;2022-10-13T08:09:02;11.10;;;7.30;;
9563;SDS011;4820;50.870;4.702;2022-10-13T08:11:28;13.30;;;7.38;;
9563;SDS011;4820;50.870;4.702;2022-10-13T08:13:54;9.68;;;6.97;;
9563;SDS011;4820;50.870;4.702;2022-10-13T08:16:24;9.98;;;7.28;;
9563;SDS011;4820;50.870;4.702;2022-10-13T08:18:51;11.80;;;7.40;;
9563;SDS011;4820;50.870;4.702;2022-10-13T08:21:17;12.07;;;7.95;;
9563;SDS011;4820;50.870;4.702;2022-10-13T08:23:44;9.90;;;7.43;;
9563;SDS011;4820;50.870;4.702;2022-10-13T08:26:14;11.93;;;7.70;;
9563;SDS011;4820;50.870;4.702;2022-10-13T08:28:43;13.00;;;7.95;;
9563;SDS011;4820;50.870;4.702;2022-10-13T08:31:08;9.85;;;7.20;;
9563;SDS011;4820;50.870;4.702;2022-10-13T08:33:34;13.43;;;8.23;;
9563;SDS011;4820;50.870;4.702;2022-10-13T08:36:00;8.10;;;6.47;;
9563;SDS011;4820;50.870;4.702;2022-10-13T08:38:25;10.55;;;6.80;;
9563;SDS011;4820;50.870;4.702;2022-10-13T08:40:51;7.10;;;5.90;;
9563;SDS011;4820;50.870;4.702;2022-10-13T08:43:19;17.08;;;8.60;;
9563;SDS011;4820;50.870;4.702;2022-10-13T08:45:50;12.02;;;7.45;;
9563;SDS011;4820;50.870;4.702;2022-10-13T08:48:21;10.20;;;7.53;;
9563;SDS011;4820;50.870;4.702;2022-10-13T08:51:01;11.77;;;7.72;;
9563;SDS011;4820;50.870;4.702;2022-10-13T08:53:40;12.68;;;7.72;;
9563;SDS011;4820;50.870;4.702;2022-10-13T08:56:22;12.93;;;7.68;;
9563;SDS011;4820;50.870;4.702;2022-10-13T08:58:49;11.25;;;7.65;;
9563;SDS011;4820;50.870;4.702;2022-10-13T09:03:44;11.63;;;7.78;;
9563;SDS011;4820;50.870;4.702;2022-10-13T09:06:37;15.80;;;7.20;;
9563;SDS011;4820;50.870;4.702;2022-10-13T09:09:09;10.63;;;7.45;;
9563;SDS011;4820;50.870;4.702;2022-10-13T09:11:37;9.80;;;7.15;;
9563;SDS011;4820;50.870;4.702;2022-10-13T09:14:05;10.52;;;7.35;;
9563;SDS011;4820;50.870;4.702;2022-10-13T09:16:44;8.27;;;6.93;;
9563;SDS011;4820;50.870;4.702;2022-10-13T09:19:12;10.07;;;7.22;;
9563;SDS011;4820;50.870;4.702;2022-10-13T09:21:44;11.93;;;7.35;;
9563;SDS011;4820;50.870;4.702;2022-10-13T09:24:13;9.20;;;6.68;;
9563;SDS011;4820;50.870;4.702;2022-10-13T09:26:41;10.32;;;6.97;;
9563;SDS011;4820;50.870;4.702;2022-10-13T09:29:15;9.88;;;6.55;;
9563;SDS011;4820;50.870;4.702;2022-10-13T09:31:44;11.82;;;7.63;;
9563;SDS011;4820;50.870;4.702;2022-10-13T09:36:41;12.32;;;6.90;;
9563;SDS011;4820;50.870;4.702;2022-10-13T09:39:30;14.57;;;7.82;;
9563;SDS011;4820;50.870;4.702;2022-10-13T09:44:48;10.30;;;6.32;;
9563;SDS011;4820;50.870;4.702;2022-10-13T09:47:21;9.85;;;6.43;;
9563;SDS011;4820;50.870;4.702;2022-10-13T09:49:57;7.65;;;6.65;;
9563;SDS011;4820;50.870;4.702;2022-10-13T09:52:25;10.45;;;6.70;;
9563;SDS011;4820;50.870;4.702;2022-10-13T09:54:52;11.65;;;6.75;;
9563;SDS011;4820;50.870;4.702;2022-10-13T10:00:11;10.32;;;6.93;;
9563;SDS011;4820;50.870;4.702;2022-10-13T10:03:26;10.45;;;6.22;;
9563;SDS011;4820;50.870;4.702;2022-10-13T10:05:50;11.20;;;6.82;;
9563;SDS011;4820;50.870;4.702;2022-10-13T10:08:30;7.95;;;6.20;;
9563;SDS011;4820;50.870;4.702;2022-10-13T10:10:59;9.68;;;6.43;;
9563;SDS011;4820;50.870;4.702;2022-10-13T10:13:27;11.07;;;6.75;;
9563;SDS011;4820;50.870;4.702;2022-10-13T10:15:54;12.80;;;6.60;;
9563;SDS011;4820;50.870;4.702;2022-10-13T10:18:44;10.65;;;6.55;;
9563;SDS011;4820;50.870;4.702;2022-10-13T10:21:16;8.52;;;6.20;;
9563;SDS011;4820;50.870;4.702;2022-10-13T10:29:15;7.80;;;6.03;;
9563;SDS011;4820;50.870;4.702;2022-10-13T10:32:01;8.95;;;6.53;;
9563;SDS011;4820;50.870;4.702;2022-10-13T10:37:53;12.75;;;6.63;;
9563;SDS011;4820;50.870;4.702;2022-10-13T10:43:18;10.82;;;6.35;;
9563;SDS011;4820;50.870;4.702;2022-10-13T10:45:54;10.85;;;7.20;;
9563;SDS011;4820;50.870;4.702;2022-10-13T10:48:23;12.10;;;7.20;;
9563;SDS011;4820;50.870;4.702;2022-10-13T10:51:09;11.75;;;7.07;;
9563;SDS011;4820;50.870;4.702;2022-10-13T10:56:41;10.80;;;7.25;;
9563;SDS011;4820;50.870;4.702;2022-10-13T11:07:13;10.65;;;7.88;;
9563;SDS011;4820;50.870;4.702;2022-10-13T11:19:54;14.05;;;9.57;;
9563;SDS011;4820;50.870;4.702;2022-10-13T11:22:30;13.70;;;9.27;;
9563;SDS011;4820;50.870;4.702;2022-10-13T11:25:00;17.00;;;10.55;;
9563;SDS011;4820;50.870;4.702;2022-10-13T11:27:52;15.82;;;10.50;;
9563;SDS011;4820;50.870;4.702;2022-10-13T11:33:30;14.75;;;10.73;;
9563;SDS011;4820;50.870;4.702;2022-10-13T11:38:53;14.20;;;10.95;;
9563;SDS011;4820;50.870;4.702;2022-10-13T11:42:17;14.43;;;10.80;;
9563;SDS011;4820;50.870;4.702;2022-10-13T11:53:26;15.38;;;11.77;;
9563;SDS011;4820;50.870;4.702;2022-10-13T11:56:16;17.35;;;12.27;;
9563;SDS011;4820;50.870;4.702;2022-10-13T11:58:44;16.48;;;11.48;;
9563;SDS011;4820;50.870;4.702;2022-10-13T12:01:13;15.88;;;12.73;;
9563;SDS011;4820;50.870;4.702;2022-10-13T12:03:42;17.50;;;12.70;;
9563;SDS011;4820;50.870;4.702;2022-10-13T12:08:47;18.58;;;12.07;;
9563;SDS011;4820;50.870;4.702;2022-10-13T12:11:21;14.75;;;11.52;;
9563;SDS011;4820;50.870;4.702;2022-10-13T12:13:49;15.32;;;11.95;;
9563;SDS011;4820;50.870;4.702;2022-10-13T12:16:16;14.88;;;12.18;;
9563;SDS011;4820;50.870;4.702;2022-10-13T12:18:42;17.10;;;11.60;;
9563;SDS011;4820;50.870;4.702;2022-10-13T12:21:12;13.68;;;11.05;;
9563;SDS011;4820;50.870;4.702;2022-10-13T12:23:44;16.35;;;11.70;;
9563;SDS011;4820;50.870;4.702;2022-10-13T12:26:17;15.63;;;10.77;;
9563;SDS011;4820;50.870;4.702;2022-10-13T12:28:53;15.20;;;11.48;;
9563;SDS011;4820;50.870;4.702;2022-10-13T12:31:46;14.77;;;10.98;;
9563;SDS011;4820;50.870;4.702;2022-10-13T12:37:06;16.35;;;10.88;;
9563;SDS011;4820;50.870;4.702;2022-10-13T12:39:38;15.02;;;10.65;;
9563;SDS011;4820;50.870;4.702;2022-10-13T12:42:05;12.75;;;10.18;;
9563;SDS011;4820;50.870;4.702;2022-10-13T12:44:34;15.13;;;10.98;;
9563;SDS011;4820;50.870;4.702;2022-10-13T12:47:01;17.30;;;11.18;;
9563;SDS011;4820;50.870;4.702;2022-10-13T12:49:31;15.82;;;10.23;;
9563;SDS011;4820;50.870;4.702;2022-10-13T12:52:08;13.98;;;10.60;;
9563;SDS011;4820;50.870;4.702;2022-10-13T12:54:50;11.63;;;9.98;;
9563;SDS011;4820;50.870;4.702;2022-10-13T12:57:25;14.30;;;9.88;;
9563;SDS011;4820;50.870;4.702;2022-10-13T13:02:46;14.73;;;9.60;;
9563;SDS011;4820;50.870;4.702;2022-10-13T13:05:32;12.50;;;9.45;;
9563;SDS011;4820;50.870;4.702;2022-10-13T13:07:58;13.05;;;9.90;;
9563;SDS011;4820;50.870;4.702;2022-10-13T13:10:25;13.20;;;10.00;;
9563;SDS011;4820;50.870;4.702;2022-10-13T13:12:52;12.80;;;9.82;;
9563;SDS011;4820;50.870;4.702;2022-10-13T13:15:34;14.02;;;10.80;;
9563;SDS011;4820;50.870;4.702;2022-10-13T13:21:07;13.35;;;10.43;;
9563;SDS011;4820;50.870;4.702;2022-10-13T13:23:35;12.73;;;9.23;;
9563;SDS011;4820;50.870;4.702;2022-10-13T13:26:02;14.45;;;10.10;;
9563;SDS011;4820;50.870;4.702;2022-10-13T13:28:37;13.52;;;9.05;;
9563;SDS011;4820;50.870;4.702;2022-10-13T13:31:25;13.93;;;9.52;;
9563;SDS011;4820;50.870;4.702;2022-10-13T13:33:50;10.88;;;8.77;;
9563;SDS011;4820;50.870;4.702;2022-10-13T13:36:20;11.55;;;8.18;;
9563;SDS011;4820;50.870;4.702;2022-10-13T13:38:47;11.20;;;8.05;;
9563;SDS011;4820;50.870;4.702;2022-10-13T13:41:13;11.90;;;7.82;;
9563;SDS011;4820;50.870;4.702;2022-10-13T13:43:41;20.45;;;8.88;;
9563;SDS011;4820;50.870;4.702;2022-10-13T13:46:11;10.80;;;7.82;;
9563;SDS011;4820;50.870;4.702;2022-10-13T13:48:49;9.90;;;7.60;;
9563;SDS011;4820;50.870;4.702;2022-10-13T13:51:15;9.00;;;7.32;;
9563;SDS011;4820;50.870;4.702;2022-10-13T13:53:41;10.23;;;7.40;;
9563;SDS011;4820;50.870;4.702;2022-10-13T13:56:17;12.02;;;8.07;;
9563;SDS011;4820;50.870;4.702;2022-10-13T13:58:44;12.93;;;8.27;;
9563;SDS011;4820;50.870;4.702;2022-10-13T14:01:10;13.13;;;8.48;;
9563;SDS011;4820;50.870;4.702;2022-10-13T14:03:36;10.55;;;8.80;;
9563;SDS011;4820;50.870;4.702;2022-10-13T14:06:02;12.73;;;8.35;;
9563;SDS011;4820;50.870;4.702;2022-10-13T14:08:31;13.55;;;9.23;;
9563;SDS011;4820;50.870;4.702;2022-10-13T14:10:58;10.73;;;9.32;;
9563;SDS011;4820;50.870;4.702;2022-10-13T14:13:23;10.43;;;9.35;;
9563;SDS011;4820;50.870;4.702;2022-10-13T14:15:59;13.02;;;9.90;;
9563;SDS011;4820;50.870;4.702;2022-10-13T14:18:26;13.60;;;9.63;;
9563;SDS011;4820;50.870;4.702;2022-10-13T14:20:52;11.63;;;9.88;;
9563;SDS011;4820;50.870;4.702;2022-10-13T14:23:17;14.35;;;10.20;;
9563;SDS011;4820;50.870;4.702;2022-10-13T14:25:43;12.60;;;10.57;;
9563;SDS011;4820;50.870;4.702;2022-10-13T14:28:10;13.18;;;10.13;;
9563;SDS011;4820;50.870;4.702;2022-10-13T14:30:39;12.95;;;10.65;;
9563;SDS011;4820;50.870;4.702;2022-10-13T14:33:05;12.45;;;10.82;;
9563;SDS011;4820;50.870;4.702;2022-10-13T14:35:32;13.30;;;11.27;;
9563;SDS011;4820;50.870;4.702;2022-10-13T14:37:58;16.85;;;11.55;;
9563;SDS011;4820;50.870;4.702;2022-10-13T14:40:24;12.93;;;11.52;;
9563;SDS011;4820;50.870;4.702;2022-10-13T14:42:49;13.82;;;10.73;;
9563;SDS011;4820;50.870;4.702;2022-10-13T14:45:15;13.73;;;11.02;;
9563;SDS011;4820;50.870;4.702;2022-10-13T14:47:42;16.60;;;11.05;;
9563;SDS011;4820;50.870;4.702;2022-10-13T14:50:08;12.70;;;11.40;;
9563;SDS011;4820;50.870;4.702;2022-10-13T14:52:34;13.73;;;11.52;;
9563;SDS011;4820;50.870;4.702;2022-10-13T14:55:00;14.60;;;12.00;;
9563;SDS011;4820;50.870;4.702;2022-10-13T14:57:25;16.33;;;11.75;;
9563;SDS011;4820;50.870;4.702;2022-10-13T14:59:51;11.63;;;10.43;;
9563;SDS011;4820;50.870;4.702;2022-10-13T15:02:17;15.63;;;11.70;;
9563;SDS011;4820;50.870;4.702;2022-10-13T15:04:43;15.82;;;12.10;;
9563;SDS011;4820;50.870;4.702;2022-10-13T15:07:08;15.15;;;11.55;;
9563;SDS011;4820;50.870;4.702;2022-10-13T15:09:34;15.73;;;13.23;;
9563;SDS011;4820;50.870;4.702;2022-10-13T15:12:00;14.60;;;12.40;;
9563;SDS011;4820;50.870;4.702;2022-10-13T15:14:25;14.30;;;11.93;;
9563;SDS011;4820;50.870;4.702;2022-10-13T15:16:51;12.30;;;10.95;;
9563;SDS011;4820;50.870;4.702;2022-10-13T15:19:17;14.93;;;11.05;;
9563;SDS011;4820;50.870;4.702;2022-10-13T15:21:43;11.60;;;10.30;;
9563;SDS011;4820;50.870;4.702;2022-10-13T15:24:09;13.45;;;10.02;;
9563;SDS011;4820;50.870;4.702;2022-10-13T15:26:35;13.60;;;9.93;;
9563;SDS011;4820;50.870;4.702;2022-10-13T15:29:01;11.50;;;9.57;;
9563;SDS011;4820;50.870;4.702;2022-10-13T15:31:27;10.80;;;8.50;;
9563;SDS011;4820;50.870;4.702;2022-10-13T15:33:55;9.02;;;7.68;;
9563;SDS011;4820;50.870;4.702;2022-10-13T15:36:22;9.95;;;7.75;;
9563;SDS011;4820;50.870;4.702;2022-10-13T15:38:49;8.82;;;7.22;;
9563;SDS011;4820;50.870;4.702;2022-10-13T15:41:15;7.53;;;5.78;;
9563;SDS011;4820;50.870;4.702;2022-10-13T15:43:42;6.65;;;5.28;;
9563;SDS011;4820;50.870;4.702;2022-10-13T15:46:11;7.68;;;5.00;;
9563;SDS011;4820;50.870;4.702;2022-10-13T15:48:45;6.40;;;4.63;;
9563;SDS011;4820;50.870;4.702;2022-10-13T15:51:16;5.35;;;4.72;;
9563;SDS011;4820;50.870;4.702;2022-10-13T15:53:43;8.45;;;5.15;;
9563;SDS011;4820;50.870;4.702;2022-10-13T15:56:10;7.40;;;4.68;;
9563;SDS011;4820;50.870;4.702;2022-10-13T15:58:35;4.78;;;4.30;;
9563;SDS011;4820;50.870;4.702;2022-10-13T16:01:05;5.97;;;4.20;;
9563;SDS011;4820;50.870;4.702;2022-10-13T16:03:35;6.97;;;4.38;;
9563;SDS011;4820;50.870;4.702;2022-10-13T16:06:03;5.28;;;4.22;;
9563;SDS011;4820;50.870;4.702;2022-10-13T16:08:29;6.25;;;4.75;;
9563;SDS011;4820;50.870;4.702;2022-10-13T16:10:55;6.30;;;4.50;;
9563;SDS011;4820;50.870;4.702;2022-10-13T16:13:21;4.68;;;4.20;;
9563;SDS011;4820;50.870;4.702;2022-10-13T16:15:56;6.57;;;3.90;;
9563;SDS011;4820;50.870;4.702;2022-10-13T16:18:26;4.97;;;4.00;;
9563;SDS011;4820;50.870;4.702;2022-10-13T16:20:53;7.40;;;4.43;;
9563;SDS011;4820;50.870;4.702;2022-10-13T16:23:19;4.55;;;4.05;;
9563;SDS011;4820;50.870;4.702;2022-10-13T16:25:44;6.35;;;4.05;;
9563;SDS011;4820;50.870;4.702;2022-10-13T16:28:11;5.45;;;4.15;;
9563;SDS011;4820;50.870;4.702;2022-10-13T16:30:38;7.15;;;4.55;;
9563;SDS011;4820;50.870;4.702;2022-10-13T16:33:04;8.50;;;4.93;;
9563;SDS011;4820;50.870;4.702;2022-10-13T16:35:30;6.97;;;5.07;;
9563;SDS011;4820;50.870;4.702;2022-10-13T16:37:55;6.93;;;4.80;;
9563;SDS011;4820;50.870;4.702;2022-10-13T16:40:21;7.10;;;4.72;;
9563;SDS011;4820;50.870;4.702;2022-10-13T16:42:47;8.57;;;4.43;;
9563;SDS011;4820;50.870;4.702;2022-10-13T16:45:12;8.23;;;5.00;;
9563;SDS011;4820;50.870;4.702;2022-10-13T16:47:38;8.93;;;6.22;;
9563;SDS011;4820;50.870;4.702;2022-10-13T16:50:04;9.93;;;5.30;;
9563;SDS011;4820;50.870;4.702;2022-10-13T16:52:33;7.63;;;5.30;;